createdAt,value
2023-04-11T00:01:58.990Z,100649.08
2023-04-11T00:17:03.508Z,100622.38
2023-04-11T00:32:08.124Z,100605.61
2023-04-11T00:47:13.436Z,100597.16
2023-04-11T01:02:18.881Z,100586.80
2023-04-11T01:17:26.066Z,100563.77
2023-04-11T02:03:26.389Z,100494.63
2023-04-11T02:18:30.724Z,100476.16
2023-04-11T02:33:35.241Z,100452.52
2023-04-11T02:48:39.226Z,100442.76
2023-04-11T03:03:44.702Z,100426.23
2023-04-11T03:18:48.894Z,100396.75
2023-04-11T04:05:01.669Z,100319.86
2023-04-11T04:20:19.435Z,100286.46
2023-04-11T04:35:24.013Z,100274.71
2023-04-11T04:50:28.527Z,100256.92
2023-04-11T05:05:32.908Z,100241.52
2023-04-11T05:48:37.540Z,100163.98
2023-04-11T06:03:40.422Z,100156.13
2023-04-11T06:18:57.944Z,100131.45
2023-04-11T06:34:01.682Z,100127.97
2023-04-11T06:49:06.925Z,100126.90
2023-04-11T07:04:09.699Z,100105.94
2023-04-11T07:19:12.522Z,100097.81
2023-04-11T07:34:15.665Z,100081.19
2023-04-11T07:49:19.402Z,100057.34
2023-04-11T08:04:22.831Z,100027.61
2023-04-11T08:19:26.125Z,100014.60
2023-04-11T08:34:34.596Z,100004.63
2023-04-11T08:49:38.030Z,99994.66
2023-04-11T09:04:43.292Z,99977.78
2023-04-11T09:19:48.971Z,99965.33
2023-04-11T09:35:09.894Z,99950.31
2023-04-11T09:50:14.063Z,99931.41
2023-04-11T10:05:27.572Z,99909.45
2023-04-11T10:20:46.133Z,99894.08
2023-04-11T10:36:10.951Z,99879.45
2023-04-11T10:51:28.496Z,99867.02
2023-04-11T11:21:56.488Z,99858.50
2023-04-11T11:37:06.069Z,99853.29
2023-04-11T11:52:08.626Z,99861.39
2023-04-11T12:07:11.380Z,99877.73
2023-04-11T12:22:14.074Z,99871.91
2023-04-11T12:37:32.408Z,99878.31
2023-04-11T12:52:36.227Z,99873.91
2023-04-11T13:07:38.888Z,99888.73
2023-04-11T13:22:42.883Z,99899.91
2023-04-11T13:37:45.852Z,99893.05
2023-04-11T13:52:48.898Z,99910.83
2023-04-11T14:07:51.556Z,99925.60
2023-04-11T14:22:56.411Z,99933.13
2023-04-11T14:37:59.259Z,99948.73
2023-04-11T14:53:02.530Z,99966.94
2023-04-11T15:08:05.739Z,99970.83
2023-04-11T15:23:11.325Z,99969.77
2023-04-11T15:38:14.833Z,99950.75
2023-04-11T15:53:18.192Z,99935.63
2023-04-11T16:08:21.530Z,99939.83
2023-04-11T16:23:24.845Z,99941.55
2023-04-11T16:38:29.070Z,99943.94
2023-04-11T16:53:33.112Z,99939.08
2023-04-11T17:08:36.097Z,99943.17
2023-04-11T17:23:43.019Z,99962.38
2023-04-11T17:38:52.666Z,99984.95
2023-04-11T17:53:57.154Z,99992.23
2023-04-11T18:09:03.848Z,99999.21
2023-04-11T18:24:07.776Z,100013.20
2023-04-11T18:39:11.042Z,100029.56
2023-04-11T18:54:14.329Z,100040.10
2023-04-11T19:09:17.812Z,100049.80
2023-04-11T19:24:23.010Z,100054.58
2023-04-11T19:39:27.501Z,100055.63
2023-04-11T19:54:32.601Z,100055.57
2023-04-11T20:09:36.742Z,100055.10
2023-04-11T20:24:39.881Z,100062.95
2023-04-11T20:39:42.906Z,100068.23
2023-04-11T20:54:46.239Z,100075.24
2023-04-11T21:09:50.135Z,100082.73
2023-04-11T21:24:53.155Z,100094.96
2023-04-11T21:39:56.224Z,100094.30
2023-04-11T21:54:59.226Z,100092.96
2023-04-11T22:10:08.647Z,100106.55
2023-04-11T22:25:11.851Z,100100.56
2023-04-11T22:40:18.681Z,100112.82
2023-04-11T22:55:24.080Z,100118.13
2023-04-11T23:10:28.354Z,100115.33
2023-04-11T23:25:31.370Z,100107.13
2023-04-11T23:40:34.476Z,100092.36
2023-04-11T23:55:39.599Z,100082.13
